Portada
METAR-TAF:

METAR-TAF

Aeroports :

Albert, França

latitud: 49-58-21N, longitud: 002-41-29E, altitud: 111 m

Observació

L'informe es va fer fa 27 minuts, a les 22:00 UTC
Vent 4 kt del Est
Temperatura 20°C
Humitat 64%
Pressió 1018 hPa
Visibilitat 10 km o més
sense núvols per sota de 1500 mi sense presència de cumulonimbus.

METAR: LFAQ 242200Z AUTO 10004KT CAVOK 20/13 Q1018

Hora: 00:27 (22:27 UTC)

Pronòstic

L'informe es va fer fa 8 hores i 27 minuts, a les 14:00 UTC
Pronòstic vàlid del 24 a les 15 UTC al 24 a les 24 UTC
Vent 8 kt del Est
Visibilitat 10 km o més
sense núvols per sota de 1500 mi sense presència de cumulonimbus.

TAF: LFAQ 241400Z 2415/2424 10008KT CAVOK

Observacions i pronòstics meteorològics de més de 4000 aeroports (METAR i TAF).

Les estacions disponibles són els punts grocs i vermells al mapa.

Posi el ratolí al punt desitjat per veure el nom de l'estació.

Feu clic per veure les observacions i els pronòstics meteorològics.

Per canviar el mapa: feu clic els botons verds amb una creu de color negre per apropar; al botó verd amb un guió per allunyar la imatge; o en les fletxes verdes per a mapes adjacents.


METAR-TAF: